Time;durP1;ratioP1;P1;durP2;ratioP2;P2;SDS_P1;SDS_P2;PMS_P1;PMS_P2;Temp;Humidity;BMP_temperature;BMP_pressure;BME280_temperature;BME280_humidity;BME280_pressure;Samples;Min_cycle;Max_cycle;Signal;HPM_P1;HPM_P2
2023/01/15 01:56:50;;;;;;;12.97;8.73;;;;;;;-0.82;73.07;101724.29;514045;101;947721;-68
2023/01/15 01:57:56;;;;;;;21.08;8.94;;;;;;;-0.86;72.87;101729.03;503541;105;922469;-70
2023/01/15 01:59:00;;;;;;;12.13;8.62;;;;;;;-0.78;72.70;101720.44;503418;105;930354;-70
2023/01/15 02:00:05;;;;;;;17.73;8.24;;;;;;;-0.71;72.50;101723.48;503724;105;922468;-69
2023/01/15 02:01:10;;;;;;;19.02;8.76;;;;;;;-0.66;72.56;101722.17;502569;104;922540;-70
2023/01/15 02:02:16;;;;;;;15.09;8.40;;;;;;;-0.61;72.38;101720.04;499024;105;923579;-68
2023/01/15 02:03:22;;;;;;;27.68;9.44;;;;;;;-0.57;72.43;101721.50;493454;107;922556;-67
2023/01/15 02:04:28;;;;;;;24.50;8.89;;;;;;;-0.53;72.33;101722.98;493491;107;922983;-68
2023/01/15 02:05:34;;;;;;;24.74;9.04;;;;;;;-0.49;72.25;101716.41;503512;105;922518;-68
2023/01/15 02:06:41;;;;;;;15.08;8.34;;;;;;;-0.44;72.20;101724.09;486314;107;922644;-69
2023/01/15 02:07:44;;;;;;;16.92;8.81;;;;;;;-0.39;72.16;101731.80;482035;108;922778;-68
2023/01/15 02:08:47;;;;;;;17.95;8.16;;;;;;;-0.35;72.05;101728.77;491721;108;922609;-69
2023/01/15 02:09:52;;;;;;;19.06;9.04;;;;;;;-0.32;72.03;101727.67;491552;108;922552;-68
2023/01/15 02:10:56;;;;;;;17.80;9.06;;;;;;;-0.30;71.95;101723.91;491685;108;922565;-69
2023/01/15 02:12:10;;;;;;;15.62;8.22;;;;;;;-0.28;71.84;101719.30;490626;108;922710;-69
2023/01/15 02:13:40;;;;;;;14.47;8.81;;;;;;;-0.24;71.81;101717.23;493247;105;922564;-68
2023/01/15 02:14:50;;;;;;;17.36;8.76;;;;;;;-0.20;71.93;101719.55;492616;107;922649;-69
2023/01/15 02:16:18;;;;;;;20.15;8.18;;;;;;;-0.16;71.72;101722.84;501013;105;922493;-68
2023/01/15 02:17:33;;;;;;;16.02;8.89;;;;;;;-0.15;71.82;101717.38;501116;105;922467;-68
2023/01/15 02:18:46;;;;;;;20.73;9.10;;;;;;;-0.13;71.75;101711.91;502570;105;922515;-69
2023/01/15 02:19:52;;;;;;;15.55;8.73;;;;;;;-0.13;71.69;101710.08;503335;105;922448;-69
2023/01/15 02:21:00;;;;;;;18.36;8.86;;;;;;;-0.11;71.50;101710.80;503155;105;922505;-69
2023/01/15 02:22:29;;;;;;;16.06;8.44;;;;;;;-0.11;71.56;101708.11;501522;105;922928;-69
2023/01/15 02:23:54;;;;;;;17.33;8.12;;;;;;;-0.08;71.42;101712.40;503706;105;922526;-69
2023/01/15 02:25:07;;;;;;;20.27;9.02;;;;;;;-0.08;71.39;101715.94;468569;110;922903;-69
2023/01/15 02:26:30;;;;;;;20.31;9.32;;;;;;;-0.05;71.37;101713.00;501805;105;923040;-67
2023/01/15 02:27:35;;;;;;;14.28;9.02;;;;;;;-0.03;71.42;101718.25;503473;105;922523;-68
2023/01/15 02:28:41;;;;;;;22.99;9.73;;;;;;;-0.01;71.34;101710.95;503251;105;923222;-69
2023/01/15 02:30:00;;;;;;;18.02;8.43;;;;;;;-0.01;71.22;101705.59;503038;104;922424;-69
2023/01/15 02:31:11;;;;;;;23.82;9.02;;;;;;;0.00;71.03;101704.63;491476;107;922852;-69
2023/01/15 02:32:17;;;;;;;15.74;8.66;;;;;;;0.00;70.99;101701.95;500259;105;922858;-68
2023/01/15 02:33:24;;;;;;;15.93;8.67;;;;;;;0.00;71.02;101708.13;502073;105;922542;-69
2023/01/15 02:34:35;;;;;;;15.69;9.28;;;;;;;0.01;70.86;101714.35;493405;107;922652;-68
2023/01/15 02:35:46;;;;;;;20.73;9.42;;;;;;;0.03;70.93;101722.28;498086;105;922886;-69
2023/01/15 02:37:05;;;;;;;22.82;9.39;;;;;;;0.05;70.76;101720.35;502501;105;922569;-68
2023/01/15 02:38:11;;;;;;;16.13;8.83;;;;;;;0.06;70.75;101722.03;503330;105;922899;-70
2023/01/15 02:39:17;;;;;;;18.72;9.25;;;;;;;0.09;70.80;101725.35;503243;105;923351;-69
2023/01/15 02:40:23;;;;;;;24.92;9.63;;;;;;;0.10;70.76;101719.02;492442;107;922524;-69
2023/01/15 02:41:30;;;;;;;19.36;9.21;;;;;;;0.12;70.59;101717.05;493040;107;922555;-69
2023/01/15 02:42:35;;;;;;;19.84;8.94;;;;;;;0.15;70.54;101722.20;477466;109;922575;-69
2023/01/15 02:43:40;;;;;;;20.06;9.34;;;;;;;0.17;70.61;101720.22;501381;105;922564;-69
2023/01/15 02:44:46;;;;;;;17.86;8.82;;;;;;;0.20;70.43;101725.37;503574;105;922479;-69
2023/01/15 02:45:53;;;;;;;18.05;9.03;;;;;;;0.22;70.40;101718.03;499711;105;922662;-69
2023/01/15 02:46:58;;;;;;;22.85;8.83;;;;;;;0.25;70.42;101722.32;494001;105;922477;-69
2023/01/15 02:48:11;;;;;;;19.53;9.09;;;;;;;0.25;70.35;101720.49;501910;105;922397;-69
2023/01/15 02:49:18;;;;;;;22.21;8.74;;;;;;;0.26;70.13;101716.84;503415;105;922879;-70
2023/01/15 02:50:27;;;;;;;18.26;8.01;;;;;;;0.26;69.98;101718.67;503269;105;922880;-69
2023/01/15 02:51:37;;;;;;;22.76;8.93;;;;;;;0.25;69.97;101714.27;501642;105;922663;-69
2023/01/15 02:52:47;;;;;;;16.97;9.14;;;;;;;0.23;69.96;101710.84;495010;105;922562;-69
2023/01/15 02:53:55;;;;;;;20.62;8.48;;;;;;;0.22;69.83;101719.89;499291;105;922481;-67
2023/01/15 02:55:05;;;;;;;21.61;8.69;;;;;;;0.21;69.94;101719.03;503457;105;922538;-69
2023/01/15 02:56:18;;;;;;;18.63;9.42;;;;;;;0.20;69.92;101714.64;501796;105;922580;-69
2023/01/15 02:57:26;;;;;;;21.69;9.68;;;;;;;0.19;69.87;101712.92;499353;105;923295;-70
2023/01/15 02:58:34;;;;;;;21.41;8.89;;;;;;;0.19;69.79;101712.06;503406;105;922419;-68
2023/01/15 02:59:41;;;;;;;18.70;9.13;;;;;;;0.18;69.80;101721.94;503445;105;922596;-69
2023/01/15 03:00:48;;;;;;;21.18;9.82;;;;;;;0.18;69.90;101721.08;503463;105;922463;-69
2023/01/15 03:01:58;;;;;;;18.33;9.01;;;;;;;0.19;69.87;101720.11;503420;105;922867;-69
2023/01/15 03:03:20;;;;;;;20.33;8.23;;;;;;;0.19;69.72;101715.61;503799;105;922574;-69
2023/01/15 03:04:35;;;;;;;20.30;9.09;;;;;;;0.21;69.79;101720.86;503105;104;922941;-69
2023/01/15 03:05:48;;;;;;;15.72;8.78;;;;;;;0.20;69.76;101720.00;503216;105;922504;-69
2023/01/15 03:07:00;;;;;;;22.44;8.88;;;;;;;0.20;69.63;101714.64;503422;105;922762;-70
2023/01/15 03:08:07;;;;;;;20.29;8.73;;;;;;;0.18;69.61;101721.94;492149;107;922633;-68
2023/01/15 03:09:13;;;;;;;16.57;9.47;;;;;;;0.17;69.63;101712.18;493573;105;922523;-68
2023/01/15 03:10:17;;;;;;;18.36;8.84;;;;;;;0.17;69.74;101714.86;503390;105;922385;-69
2023/01/15 03:11:20;;;;;;;23.86;9.98;;;;;;;0.18;69.73;101721.94;503421;105;922918;-67
2023/01/15 03:12:29;;;;;;;20.89;9.38;;;;;;;0.19;69.55;101720.11;502993;105;922526;-69
2023/01/15 03:13:48;;;;;;;21.74;9.58;;;;;;;0.16;69.50;101718.55;492984;107;922466;-71
2023/01/15 03:15:10;;;;;;;15.21;9.19;;;;;;;0.16;69.50;101720.37;495566;105;923545;-69
2023/01/15 03:16:40;;;;;;;20.52;8.73;;;;;;;0.15;69.63;101721.34;503295;105;922940;-69
2023/01/15 03:17:46;;;;;;;16.78;9.33;;;;;;;0.15;69.57;101713.30;498045;105;922500;-69
2023/01/15 03:18:53;;;;;;;22.44;9.08;;;;;;;0.13;69.66;101710.72;492018;107;922575;-69
2023/01/15 03:20:00;;;;;;;17.08;9.52;;;;;;;0.14;69.61;101703.53;491931;108;922523;-70
2023/01/15 03:21:08;;;;;;;19.81;8.94;;;;;;;0.15;69.71;101705.25;498394;105;923191;-70
2023/01/15 03:22:27;;;;;;;18.75;9.06;;;;;;;0.15;69.69;101705.25;493878;105;922776;-70
2023/01/15 03:23:34;;;;;;;20.90;10.05;;;;;;;0.14;69.54;101709.75;500574;105;922553;-70
2023/01/15 03:24:55;;;;;;;22.09;10.09;;;;;;;0.14;69.53;101709.75;491959;107;922514;-69
2023/01/15 03:26:00;;;;;;;20.08;9.27;;;;;;;0.13;69.63;101708.04;499506;105;922520;-70
2023/01/15 03:27:04;;;;;;;20.75;9.43;;;;;;;0.14;69.66;101709.75;492580;105;922390;-70
2023/01/15 03:28:09;;;;;;;23.27;9.62;;;;;;;0.14;69.54;101714.27;487579;107;923401;-68
2023/01/15 03:29:13;;;;;;;23.11;9.26;;;;;;;0.14;69.52;101717.80;500843;105;922431;-69
2023/01/15 03:30:19;;;;;;;24.41;10.29;;;;;;;0.14;69.66;101715.11;484979;107;922477;-69
2023/01/15 03:31:24;;;;;;;16.94;9.34;;;;;;;0.15;69.58;101711.47;496871;105;922421;-69
2023/01/15 03:32:27;;;;;;;15.55;7.91;;;;;;;0.16;69.51;101709.64;501580;105;922439;-68
2023/01/15 03:33:34;;;;;;;25.16;9.72;;;;;;;0.17;69.49;101709.50;500971;105;922507;-69
2023/01/15 03:34:43;;;;;;;29.19;9.42;;;;;;;0.19;69.63;101712.92;486938;107;930614;-69
2023/01/15 03:35:51;;;;;;;17.44;9.66;;;;;;;0.20;69.61;101711.95;494255;105;923032;-69
2023/01/15 03:36:59;;;;;;;26.77;9.61;;;;;;;0.21;69.52;101716.35;502657;105;922560;-69
2023/01/15 03:38:03;;;;;;;15.86;8.88;;;;;;;0.22;69.60;101715.35;483289;109;922552;-68
2023/01/15 03:39:08;;;;;;;22.16;8.38;;;;;;;0.24;69.48;101713.41;483871;107;922529;-69
2023/01/15 03:40:20;;;;;;;20.72;9.24;;;;;;;0.27;69.48;101717.70;494606;105;922286;-70
2023/01/15 03:41:33;;;;;;;20.10;8.48;;;;;;;0.27;69.55;101712.33;503156;105;922858;-68
2023/01/15 03:43:39;;;;;;;17.14;9.48;;;;;;;0.28;69.45;101712.19;503405;105;922826;-69
2023/01/15 03:44:03;;;;;;;27.03;10.17;;;;;;;0.30;69.54;101722.81;496195;105;922541;-69
2023/01/15 03:45:13;;;;;;;20.49;9.50;;;;;;;0.30;69.48;101720.12;492580;107;930755;-69
2023/01/15 03:46:42;;;;;;;27.77;10.19;;;;;;;0.29;69.32;101718.41;483412;105;922925;-69
2023/01/15 03:47:57;;;;;;;;;;;;;;;0.27;69.28;101713.19;494948;106;922074;-69
2023/01/15 03:49:22;;;;;;;20.49;9.06;;;;;;;0.24;69.35;101715.23;494240;105;922326;-69
2023/01/15 03:50:35;;;;;;;22.21;8.89;;;;;;;0.19;69.30;101707.56;494885;105;922750;-69
2023/01/15 03:51:48;;;;;;;27.79;9.96;;;;;;;0.15;69.43;101716.83;499025;105;922483;-68
2023/01/15 03:52:54;;;;;;;21.79;10.12;;;;;;;0.14;69.61;101719.62;503428;105;922862;-69
2023/01/15 03:54:01;;;;;;;23.11;10.84;;;;;;;0.12;69.66;101719.73;488042;107;922590;-69
2023/01/15 03:55:11;;;;;;;22.67;10.54;;;;;;;0.13;69.66;101720.59;493273;105;922847;-70
2023/01/15 03:56:18;;;;;;;18.81;9.44;;;;;;;0.14;69.52;101724.98;500609;105;922737;-67
2023/01/15 03:57:41;;;;;;;18.91;10.23;;;;;;;0.13;69.51;101712.55;486387;107;922960;-69
2023/01/15 03:58:50;;;;;;;19.58;8.87;;;;;;;0.13;69.63;101724.13;481241;109;922530;-69
2023/01/15 03:59:59;;;;;;;19.21;10.23;;;;;;;0.14;69.66;101725.84;492590;106;922857;-70
2023/01/15 04:01:06;;;;;;;24.07;9.91;;;;;;;0.15;69.69;101724.87;483670;109;922657;-69
2023/01/15 04:02:12;;;;;;;22.67;10.13;;;;;;;0.18;69.68;101723.77;489985;107;922507;-69
2023/01/15 04:03:19;;;;;;;28.77;10.40;;;;;;;0.19;69.69;101720.11;486997;109;922441;-69
2023/01/15 04:04:25;;;;;;;24.60;10.08;;;;;;;0.21;69.60;101724.40;493310;107;922866;-68
2023/01/15 04:05:30;;;;;;;17.73;9.87;;;;;;;0.23;69.54;101726.94;485027;107;922537;-69
2023/01/15 04:06:36;;;;;;;20.24;10.02;;;;;;;0.24;69.59;101717.92;474467;108;922628;-69
2023/01/15 04:07:40;;;;;;;20.05;9.33;;;;;;;0.25;69.54;101716.95;478281;109;923027;-69
2023/01/15 04:08:46;;;;;;;20.91;10.59;;;;;;;0.25;69.45;101723.17;477402;111;922382;-69
2023/01/15 04:09:49;;;;;;;18.89;9.36;;;;;;;0.26;69.52;101719.52;473089;112;922735;-69
2023/01/15 04:10:57;;;;;;;26.45;10.19;;;;;;;0.27;69.45;101726.60;485199;107;922646;-70
2023/01/15 04:12:02;;;;;;;27.63;9.74;;;;;;;0.29;69.42;101726.45;493518;106;922501;-69
2023/01/15 04:13:08;;;;;;;21.05;10.16;;;;;;;0.29;69.29;101729.14;492715;107;922546;-69
2023/01/15 04:14:13;;;;;;;15.44;9.11;;;;;;;0.27;69.39;101721.23;493122;107;922805;-70
2023/01/15 04:15:21;;;;;;;22.13;10.00;;;;;;;0.28;69.28;101720.23;494276;106;922413;-69
2023/01/15 04:16:27;;;;;;;20.52;9.34;;;;;;;0.27;69.44;101718.55;494601;107;922718;-68
2023/01/15 04:17:30;;;;;;;15.59;9.15;;;;;;;0.28;69.46;101722.92;493960;106;922521;-69
2023/01/15 04:18:33;;;;;;;21.83;9.57;;;;;;;0.28;69.42;101722.92;493052;107;922409;-68
2023/01/15 04:19:37;;;;;;;24.77;9.64;;;;;;;0.29;69.45;101719.27;493055;106;930504;-68
2023/01/15 04:20:42;;;;;;;23.35;10.64;;;;;;;0.30;69.41;101720.12;493917;106;922555;-69
2023/01/15 04:21:46;;;;;;;24.34;10.02;;;;;;;0.31;69.24;101719.16;483491;109;923078;-70
2023/01/15 04:22:49;;;;;;;22.98;10.04;;;;;;;0.31;69.25;101719.16;479082;109;922755;-69
2023/01/15 04:23:52;;;;;;;26.14;9.79;;;;;;;0.31;69.35;101728.06;487259;109;922893;-69
2023/01/15 04:24:55;;;;;;;18.02;9.50;;;;;;;0.31;69.35;101728.06;487237;109;922536;-68
2023/01/15 04:25:59;;;;;;;25.41;10.79;;;;;;;0.31;69.35;101722.70;494236;106;922390;-69
2023/01/15 04:27:02;;;;;;;17.32;9.40;;;;;;;0.32;69.25;101729.77;492102;106;930533;-69
2023/01/15 04:28:05;;;;;;;19.60;10.40;;;;;;;0.32;69.21;101720.87;493293;107;922952;-69
2023/01/15 04:29:09;;;;;;;24.45;10.01;;;;;;;0.32;69.19;101727.09;492340;107;922760;-69
2023/01/15 04:30:16;;;;;;;16.81;9.36;;;;;;;0.31;69.18;101727.20;495548;106;922493;-69
2023/01/15 04:31:18;;;;;;;22.24;9.76;;;;;;;0.30;69.15;101725.48;491844;108;922793;-68
2023/01/15 04:32:21;;;;;;;15.70;9.77;;;;;;;0.27;69.12;101721.23;492711;107;922437;-69
2023/01/15 04:33:25;;;;;;;15.74;9.53;;;;;;;0.27;69.28;101731.11;495137;106;930236;-69
2023/01/15 04:34:28;;;;;;;14.99;9.33;;;;;;;0.27;69.18;101728.42;492993;106;922404;-69
2023/01/15 04:35:31;;;;;;;14.38;9.07;;;;;;;0.26;69.23;101724.03;486854;107;924294;-69
2023/01/15 04:36:34;;;;;;;19.39;9.53;;;;;;;0.27;69.23;101723.92;494524;106;922425;-69
2023/01/15 04:37:38;;;;;;;22.37;9.84;;;;;;;0.26;69.24;101724.89;493105;107;922451;-69
2023/01/15 04:38:41;;;;;;;22.20;9.46;;;;;;;0.26;69.29;101721.34;493141;107;922458;-69
2023/01/15 04:39:45;;;;;;;18.09;9.28;;;;;;;0.26;69.24;101719.52;490332;107;922850;-69
2023/01/15 04:44:55;;;;;;;20.74;10.16;;;;;;;0.23;69.24;101722.43;480176;109;922486;-69
2023/01/15 04:45:58;;;;;;;20.84;9.83;;;;;;;0.23;69.28;101718.89;472773;112;922970;-69
2023/01/15 04:47:01;;;;;;;19.39;9.73;;;;;;;0.21;69.27;101721.72;480745;109;922902;-69
2023/01/15 04:48:05;;;;;;;27.22;10.72;;;;;;;0.20;69.29;101725.37;480356;109;930340;-71
2023/01/15 04:49:11;;;;;;;22.66;9.70;;;;;;;0.21;69.42;101727.08;481104;109;922535;-69
2023/01/15 04:50:15;;;;;;;27.15;9.36;;;;;;;0.22;69.32;101727.94;478394;111;922783;-69
2023/01/15 04:51:18;;;;;;;22.72;9.26;;;;;;;0.22;69.34;101731.44;475117;111;923072;-69
2023/01/15 04:52:21;;;;;;;20.07;10.56;;;;;;;0.23;69.44;101734.98;475259;111;922852;-68
2023/01/15 04:53:25;;;;;;;16.08;8.94;;;;;;;0.23;69.31;101735.84;484174;109;930354;-69
2023/01/15 04:54:28;;;;;;;26.25;10.73;;;;;;;0.24;69.41;101740.23;474839;111;922530;-69
2023/01/15 04:55:31;;;;;;;22.68;9.49;;;;;;;0.25;69.29;101741.09;473104;110;922710;-68
2023/01/15 04:56:40;;;;;;;17.74;9.31;;;;;;;0.25;69.26;101736.59;481167;108;922555;-70
2023/01/15 04:57:43;;;;;;;19.77;9.89;;;;;;;0.25;69.30;101736.59;487681;107;922575;-69
2023/01/15 04:58:46;;;;;;;26.33;10.21;;;;;;;0.25;69.13;101722.32;485400;107;922560;-68
2023/01/15 04:59:49;;;;;;;20.38;10.84;;;;;;;0.24;69.23;101728.65;492401;107;922465;-70
2023/01/15 05:00:53;;;;;;;24.11;9.81;;;;;;;0.22;69.23;101723.39;502677;105;922557;-70
2023/01/15 05:01:56;;;;;;;24.87;9.54;;;;;;;0.23;69.23;101730.48;503394;105;922482;-69
2023/01/15 05:03:01;;;;;;;17.98;10.04;;;;;;;0.23;69.18;101732.30;499598;105;922460;-69
2023/01/15 05:04:04;;;;;;;26.15;10.45;;;;;;;0.24;69.26;101734.02;503231;105;922445;-69
2023/01/15 05:05:08;;;;;;;17.36;9.11;;;;;;;0.24;69.18;101728.65;495039;105;922505;-70
2023/01/15 05:06:13;;;;;;;20.66;9.94;;;;;;;0.24;69.28;101726.83;501075;105;922471;-69
2023/01/15 05:07:16;;;;;;;19.09;9.60;;;;;;;0.24;69.22;101726.83;492519;107;922583;-69
2023/01/15 05:08:19;;;;;;;21.48;9.27;;;;;;;0.24;69.06;101728.65;495801;105;930446;-69
2023/01/15 05:09:22;;;;;;;24.22;9.60;;;;;;;0.23;69.15;101727.80;503497;105;923512;-70
2023/01/15 05:10:25;;;;;;;18.75;9.10;;;;;;;0.22;69.00;101722.58;503335;105;922555;-70
2023/01/15 05:11:29;;;;;;;19.72;9.98;;;;;;;0.21;69.08;101721.72;503549;105;922380;-70
2023/01/15 05:12:32;;;;;;;27.61;9.36;;;;;;;0.19;69.00;101722.80;498226;105;922572;-69
2023/01/15 05:13:35;;;;;;;19.30;10.90;;;;;;;0.19;69.09;101720.11;494863;105;922419;-69
2023/01/15 05:14:38;;;;;;;24.26;10.86;;;;;;;0.18;69.09;101723.77;492633;107;922454;-69
2023/01/15 05:15:41;;;;;;;21.97;10.95;;;;;;;0.17;69.00;101719.37;492608;107;922924;-69
2023/01/15 05:16:45;;;;;;;21.95;10.66;;;;;;;0.16;69.11;101717.69;503450;105;922476;-68
2023/01/15 05:17:48;;;;;;;23.96;10.54;;;;;;;0.16;69.09;101721.23;503571;105;922478;-68
2023/01/15 05:18:53;;;;;;;15.32;9.36;;;;;;;0.16;69.00;101720.37;503613;105;922497;-69
2023/01/15 05:19:56;;;;;;;19.99;9.27;;;;;;;0.15;68.98;101719.52;503349;105;922455;-69
2023/01/15 05:20:59;;;;;;;20.05;9.65;;;;;;;0.16;68.99;101723.91;501712;105;922821;-69
2023/01/15 05:22:02;;;;;;;20.71;10.39;;;;;;;0.15;68.96;101724.02;501470;105;922436;-69
2023/01/15 05:23:06;;;;;;;26.74;9.65;;;;;;;0.14;69.05;101720.48;503565;105;922878;-69
2023/01/15 05:24:12;;;;;;;18.24;9.26;;;;;;;0.14;69.02;101716.94;503195;105;922621;-68
2023/01/15 05:25:15;;;;;;;19.46;9.89;;;;;;;0.12;69.03;101722.41;503384;105;922612;-70
2023/01/15 05:26:20;;;;;;;23.67;10.48;;;;;;;0.11;68.88;101718.02;503320;105;922562;-69
2023/01/15 05:27:23;;;;;;;32.69;10.42;;;;;;;0.09;68.97;101721.81;503368;105;922623;-69
2023/01/15 05:28:26;;;;;;;26.55;11.17;;;;;;;0.06;68.85;101722.89;493179;105;930450;-70
2023/01/15 05:29:29;;;;;;;32.67;10.19;;;;;;;0.05;68.98;101714.98;495285;105;922491;-68
2023/01/15 05:30:32;;;;;;;23.18;9.67;;;;;;;0.04;69.05;101721.32;498868;105;922492;-69
2023/01/15 05:31:35;;;;;;;22.36;10.61;;;;;;;0.03;68.96;101723.14;492593;107;922524;-70
2023/01/15 05:32:39;;;;;;;21.10;9.93;;;;;;;0.03;69.02;101722.28;492578;107;922418;-68
2023/01/15 05:33:43;;;;;;;26.36;9.82;;;;;;;0.03;68.99;101725.83;493334;105;922607;-68
2023/01/15 05:34:46;;;;;;;21.46;9.96;;;;;;;0.02;69.02;101726.79;502858;105;922643;-68
2023/01/15 05:35:49;;;;;;;23.86;9.27;;;;;;;0.02;68.93;101728.62;503428;105;922538;-69
2023/01/15 05:36:52;;;;;;;18.47;9.60;;;;;;;0.01;68.90;101727.76;494082;107;922464;-69
2023/01/15 05:37:55;;;;;;;27.59;10.34;;;;;;;0.01;68.91;101725.08;495425;105;922846;-69
2023/01/15 05:39:00;;;;;;;22.96;9.95;;;;;;;0.00;68.87;101724.22;498008;105;922881;-69
2023/01/15 05:40:04;;;;;;;27.57;10.19;;;;;;;0.00;68.98;101734.13;495216;105;922472;-69
2023/01/15 05:42:31;;;;;;;24.93;9.36;;;;;;;-0.01;68.86;101730.58;494885;105;922547;-68
2023/01/15 05:43:34;;;;;;;29.42;9.46;;;;;;;-0.02;68.85;101738.73;496144;105;922687;-70
2023/01/15 05:44:37;;;;;;;26.73;9.42;;;;;;;-0.02;68.94;101742.27;503592;105;922505;-69
2023/01/15 05:45:40;;;;;;;22.02;9.34;;;;;;;-0.02;68.82;101736.91;497041;105;922950;-70
2023/01/15 05:46:44;;;;;;;23.57;9.83;;;;;;;-0.02;68.93;101744.09;492674;107;922452;-68
2023/01/15 05:47:47;;;;;;;20.66;9.21;;;;;;;-0.04;68.91;101746.89;494523;105;923063;-69
2023/01/15 05:48:50;;;;;;;24.76;9.83;;;;;;;-0.04;68.93;101738.84;493305;105;930531;-69
2023/01/15 05:49:53;;;;;;;25.00;9.39;;;;;;;-0.05;68.82;101744.31;503577;105;922571;-67
2023/01/15 05:51:00;;;;;;;21.86;10.06;;;;;;;-0.06;68.94;101743.48;493282;105;922500;-69
2023/01/15 05:52:03;;;;;;;26.61;10.14;;;;;;;-0.05;68.92;101749.67;503065;105;922513;-70
2023/01/15 05:58:07;;;;;;;23.40;9.56;;;;;;;-0.12;68.66;101751.14;507542;104;922576;-67
2023/01/15 05:59:12;;;;;;;25.10;9.90;;;;;;;-0.19;68.86;101753.43;506531;104;922374;-69
2023/01/15 06:00:16;;;;;;;26.66;10.36;;;;;;;-0.22;68.94;101750.14;503971;105;922401;-69
2023/01/15 06:01:19;;;;;;;21.79;10.41;;;;;;;-0.22;69.01;101756.33;500975;105;930527;-69
2023/01/15 06:02:22;;;;;;;27.32;10.75;;;;;;;-0.22;69.00;101752.82;493189;107;922472;-69
2023/01/15 06:03:26;;;;;;;25.10;10.44;;;;;;;-0.21;69.02;101754.50;497402;105;922800;-70
2023/01/15 06:04:29;;;;;;;28.82;10.11;;;;;;;-0.21;69.08;101751.83;504108;105;922412;-69
2023/01/15 06:05:32;;;;;;;31.61;9.89;;;;;;;-0.20;68.94;101753.54;498939;105;922490;-69
2023/01/15 06:06:36;;;;;;;25.07;9.57;;;;;;;-0.19;68.89;101755.25;493842;105;922929;-69
2023/01/15 06:07:39;;;;;;;18.56;9.75;;;;;;;-0.19;68.96;101752.57;493259;107;922470;-70
2023/01/15 06:08:42;;;;;;;18.62;10.35;;;;;;;-0.19;68.82;101745.39;499976;105;922491;-69
2023/01/15 06:09:45;;;;;;;23.79;9.09;;;;;;;-0.18;68.81;101751.61;492720;107;922465;-69
2023/01/15 06:10:49;;;;;;;28.01;9.88;;;;;;;-0.18;68.84;101754.29;502194;105;922488;-69
2023/01/15 06:11:54;;;;;;;26.51;10.33;;;;;;;-0.17;68.81;101750.64;502995;105;922447;-70
2023/01/15 06:12:57;;;;;;;29.66;9.82;;;;;;;-0.18;68.68;101751.61;502362;105;930498;-69
2023/01/15 06:14:00;;;;;;;33.81;10.86;;;;;;;-0.18;68.73;101746.25;502597;105;922459;-69
2023/01/15 06:15:03;;;;;;;27.96;11.24;;;;;;;-0.16;68.71;101749.64;501061;105;922503;-70
2023/01/15 06:16:09;;;;;;;29.06;9.99;;;;;;;-0.15;68.80;101751.36;494619;107;922490;-69
2023/01/15 06:17:13;;;;;;;25.84;9.81;;;;;;;-0.14;68.69;101753.93;496163;105;922470;-69
2023/01/15 06:18:16;;;;;;;26.40;9.70;;;;;;;-0.14;68.68;101753.08;503614;105;922973;-69
2023/01/15 06:19:20;;;;;;;27.51;9.98;;;;;;;-0.15;68.53;101754.04;503936;105;923128;-69
2023/01/15 06:20:23;;;;;;;40.55;10.74;;;;;;;-0.15;68.48;101752.22;503932;105;922796;-69
2023/01/15 06:21:26;;;;;;;38.65;10.51;;;;;;;-0.16;68.37;101755.86;504155;105;922878;-67
2023/01/15 06:22:29;;;;;;;32.71;10.21;;;;;;;-0.17;68.46;101747.97;500081;105;923401;-69
2023/01/15 06:23:35;;;;;;;32.33;9.79;;;;;;;-0.18;68.40;101748.92;493291;107;922401;-69
2023/01/15 06:24:39;;;;;;;31.34;9.07;;;;;;;-0.20;68.42;101751.72;494395;105;922506;-68
2023/01/15 06:25:42;;;;;;;30.60;9.68;;;;;;;-0.21;68.28;101752.68;503811;105;922453;-70
2023/01/15 06:26:45;;;;;;;27.06;9.53;;;;;;;-0.22;68.27;101752.82;504141;105;922668;-68
2023/01/15 06:27:48;;;;;;;35.31;10.96;;;;;;;-0.24;68.28;101741.35;503318;105;923162;-70
2023/01/15 06:28:51;;;;;;;36.31;10.19;;;;;;;-0.24;68.42;101738.67;493184;105;922845;-69
2023/01/15 06:29:57;;;;;;;39.88;10.33;;;;;;;-0.25;68.32;101743.17;499857;105;922457;-70
2023/01/15 06:31:01;;;;;;;41.28;11.03;;;;;;;-0.25;68.29;101736.95;503913;105;922441;-69
2023/01/15 06:32:05;;;;;;;37.58;10.38;;;;;;;-0.25;68.19;101739.64;503947;105;922843;-68
2023/01/15 06:33:08;;;;;;;28.76;10.56;;;;;;;-0.27;68.17;101736.20;504133;105;922451;-70
2023/01/15 06:34:11;;;;;;;39.18;10.78;;;;;;;-0.29;68.22;101747.07;504204;105;922891;-69
2023/01/15 06:35:14;;;;;;;38.37;10.24;;;;;;;-0.29;68.18;101748.89;503756;105;922581;-69
2023/01/15 06:36:22;;;;;;;40.99;10.55;;;;;;;-0.31;68.34;101746.32;504034;105;922991;-70
2023/01/15 06:37:26;;;;;;;38.21;10.61;;;;;;;-0.29;68.37;101754.25;500134;105;922435;-69
2023/01/15 06:38:29;;;;;;;33.50;9.92;;;;;;;-0.29;68.36;101756.93;494065;105;922645;-69
2023/01/15 06:39:32;;;;;;;35.01;10.91;;;;;;;-0.28;68.36;101748.78;499193;105;922946;-68
2023/01/15 06:40:36;;;;;;;40.33;10.41;;;;;;;-0.28;68.33;101753.28;504243;105;922506;-69
2023/01/15 06:47:20;;;;;;;48.26;10.65;;;;;;;-0.21;68.37;101759.86;498455;106;922496;-68
2023/01/15 06:48:25;;;;;;;39.03;10.23;;;;;;;-0.20;68.35;101764.26;498401;106;922784;-70
2023/01/15 06:49:29;;;;;;;47.06;11.67;;;;;;;-0.22;68.13;101761.69;498451;106;922492;-69
2023/01/15 06:50:32;;;;;;;42.68;10.51;;;;;;;-0.23;68.15;101762.69;500614;105;923139;-69
2023/01/15 06:51:35;;;;;;;44.76;11.01;;;;;;;-0.23;68.25;101756.47;504217;105;922964;-70
2023/01/15 06:52:38;;;;;;;49.83;11.61;;;;;;;-0.24;68.08;101768.16;504202;105;922830;-69
2023/01/15 06:53:41;;;;;;;49.81;11.93;;;;;;;-0.24;68.15;101757.44;504108;105;922440;-69
2023/01/15 06:54:45;;;;;;;49.05;11.42;;;;;;;-0.26;68.01;101759.36;495585;105;922692;-69
2023/01/15 06:55:48;;;;;;;37.41;10.15;;;;;;;-0.26;68.03;101756.69;507285;104;922507;-69
2023/01/15 06:56:51;;;;;;;43.68;12.33;;;;;;;-0.26;68.01;101760.22;504107;105;922536;-69
2023/01/15 06:57:54;;;;;;;41.19;10.33;;;;;;;-0.26;68.15;101759.36;503761;105;922501;-70
2023/01/15 06:58:57;;;;;;;45.28;11.71;;;;;;;-0.25;68.16;101753.89;494779;107;922915;-68
2023/01/15 07:00:01;;;;;;;48.05;11.63;;;;;;;-0.24;68.13;101762.80;494327;107;922493;-69
2023/01/15 07:01:07;;;;;;;39.04;10.22;;;;;;;-0.22;68.09;101766.22;492743;105;922460;-69
2023/01/15 07:02:11;;;;;;;45.82;12.13;;;;;;;-0.22;67.92;101759.01;489249;108;922523;-67
2023/01/15 07:03:14;;;;;;;48.58;11.32;;;;;;;-0.21;67.88;101749.14;478529;111;922502;-68
2023/01/15 07:04:17;;;;;;;44.02;12.41;;;;;;;-0.20;68.02;101766.94;464391;114;930479;-69
2023/01/15 07:05:20;;;;;;;45.87;11.53;;;;;;;-0.20;68.01;101759.75;471590;112;922534;-69
2023/01/15 07:06:24;;;;;;;43.59;10.09;;;;;;;-0.19;67.86;101757.94;478566;111;923052;-68
2023/01/15 07:07:29;;;;;;;51.48;11.91;;;;;;;-0.19;67.88;101760.61;478453;111;922693;-68
2023/01/15 07:08:32;;;;;;;52.34;12.18;;;;;;;-0.19;67.79;101755.25;481378;109;923514;-68
2023/01/15 07:09:36;;;;;;;45.81;11.04;;;;;;;-0.19;67.91;101752.57;484155;109;922467;-69
2023/01/15 07:10:40;;;;;;;49.88;12.27;;;;;;;-0.18;67.87;101762.33;483975;109;922536;-69
2023/01/15 07:11:49;;;;;;;52.75;12.81;;;;;;;-0.18;67.88;101765.87;484015;109;922503;-69
2023/01/15 07:12:52;;;;;;;51.32;11.37;;;;;;;-0.16;67.76;101760.36;483709;109;922458;-69
2023/01/15 07:14:04;;;;;;;46.22;11.89;;;;;;;-0.17;67.71;101764.90;473208;112;922475;-69
2023/01/15 07:15:00;;;;;;;70.62;12.99;;;;;;;-0.15;67.66;101759.41;473831;111;922507;-69